createdAt,value
2019-02-02T00:02:05.693Z,259.00
2019-02-02T00:05:00.520Z,258.10
2019-02-02T00:07:55.609Z,259.35
2019-02-02T00:10:50.060Z,254.05
2019-02-02T00:13:45.370Z,273.13
2019-02-02T00:16:40.108Z,280.15
2019-02-02T00:19:34.830Z,266.88
2019-02-02T00:22:29.735Z,287.77
2019-02-02T00:25:24.973Z,277.05
2019-02-02T00:28:19.842Z,303.37
2019-02-02T00:31:14.830Z,345.85
2019-02-02T00:34:09.841Z,306.25
2019-02-02T00:37:04.914Z,311.35
2019-02-02T00:39:59.711Z,303.83
2019-02-02T00:42:54.454Z,311.60
2019-02-02T00:45:48.800Z,270.93
2019-02-02T00:48:43.504Z,286.52
2019-02-02T00:51:38.163Z,282.77
2019-02-02T00:54:32.817Z,280.15
2019-02-02T00:57:27.288Z,264.05
2019-02-02T01:00:22.034Z,256.40
2019-02-02T01:03:16.837Z,253.70
2019-02-02T01:06:11.442Z,247.60
2019-02-02T01:09:06.878Z,260.82
2019-02-02T01:12:01.406Z,254.80
2019-02-02T01:14:56.088Z,247.33
2019-02-02T01:17:50.883Z,263.40
2019-02-02T01:20:45.479Z,283.93
2019-02-02T01:23:40.613Z,261.50
2019-02-02T01:26:35.408Z,291.82
2019-02-02T01:29:29.813Z,254.47
2019-02-02T01:32:24.409Z,258.63
2019-02-02T01:35:20.040Z,259.57
2019-02-02T01:38:14.729Z,260.90
2019-02-02T01:41:09.259Z,274.98
2019-02-02T01:44:04.047Z,274.80
2019-02-02T01:46:58.743Z,290.12
2019-02-02T01:49:53.207Z,302.45
2019-02-02T01:52:47.698Z,309.27
2019-02-02T01:55:42.639Z,296.48
2019-02-02T01:58:37.117Z,321.37
2019-02-02T02:01:31.857Z,315.10
2019-02-02T02:04:26.493Z,333.98
2019-02-02T02:07:21.249Z,363.32
2019-02-02T02:10:16.599Z,379.45
2019-02-02T02:13:11.634Z,309.77
2019-02-02T02:16:06.070Z,322.73
2019-02-02T02:19:00.822Z,328.60
2019-02-02T02:21:59.298Z,303.75
2019-02-02T02:24:54.212Z,299.90
2019-02-02T02:27:49.214Z,336.80
2019-02-02T02:30:47.118Z,332.10
2019-02-02T02:33:39.426Z,352.07
2019-02-02T02:36:33.888Z,328.60
2019-02-02T02:39:29.211Z,313.73
2019-02-02T02:42:24.178Z,331.02
2019-02-02T02:45:18.791Z,292.32
2019-02-02T02:48:17.123Z,323.75
2019-02-02T02:51:11.872Z,342.43
2019-02-02T02:54:10.371Z,340.73
2019-02-02T02:57:05.997Z,296.75
2019-02-02T03:00:00.473Z,302.93
2019-02-02T03:02:55.475Z,294.23
2019-02-02T03:05:50.168Z,338.55
2019-02-02T03:08:44.688Z,302.18
2019-02-02T03:11:40.080Z,289.30
2019-02-02T03:14:34.730Z,287.00
2019-02-02T03:17:29.304Z,324.67
2019-02-02T03:20:24.377Z,209.95
2019-02-02T03:23:22.239Z,229.97
2019-02-02T03:26:16.858Z,236.10
2019-02-02T03:29:11.628Z,225.57
2019-02-02T03:32:06.729Z,217.00
2019-02-02T03:35:01.236Z,195.35
2019-02-02T03:37:56.267Z,242.97
2019-02-02T03:40:50.752Z,294.25
2019-02-02T03:43:49.214Z,258.15
2019-02-02T03:46:44.359Z,227.20
2019-02-02T03:49:39.028Z,181.47
2019-02-02T03:52:33.527Z,217.82
2019-02-02T03:55:28.071Z,195.68
2019-02-02T03:58:22.826Z,178.80
2019-02-02T04:01:17.304Z,169.65
2019-02-02T04:04:11.665Z,120.30
2019-02-02T04:07:06.075Z,107.85
2019-02-02T04:10:00.931Z,165.10
2019-02-02T04:12:55.782Z,118.15
2019-02-02T04:15:50.873Z,107.40
2019-02-02T04:18:47.014Z,95.97
2019-02-02T04:21:42.351Z,126.82
2019-02-02T04:24:38.010Z,127.50
2019-02-02T04:27:33.343Z,123.80
2019-02-02T04:30:30.039Z,132.47
2019-02-02T04:33:24.683Z,127.62
2019-02-02T04:36:19.378Z,177.60
2019-02-02T04:39:14.147Z,147.35
2019-02-02T04:42:08.856Z,164.52
2019-02-02T04:45:04.300Z,139.75
2019-02-02T04:47:58.841Z,148.43
2019-02-02T04:50:53.735Z,118.08
2019-02-02T04:53:48.592Z,130.93
2019-02-02T04:56:45.987Z,104.67
2019-02-02T04:59:41.368Z,103.85
2019-02-02T05:02:39.931Z,112.75
2019-02-02T05:05:35.812Z,107.65
2019-02-02T05:08:30.679Z,105.40
2019-02-02T05:11:26.046Z,111.00
2019-02-02T05:14:23.973Z,112.15
2019-02-02T05:17:20.154Z,113.08
2019-02-02T05:20:18.880Z,123.05
2019-02-02T05:23:18.880Z,123.97
2019-02-02T05:26:15.902Z,117.15
2019-02-02T05:29:15.598Z,124.25
2019-02-02T05:32:17.599Z,110.55
2019-02-02T05:35:31.085Z,96.25
2019-02-02T05:48:44.471Z,109.10
2019-02-02T05:54:55.869Z,112.22
2019-02-02T05:57:59.169Z,96.95
2019-02-02T06:00:59.230Z,118.87
2019-02-02T06:03:56.328Z,98.03
2019-02-02T06:07:12.503Z,93.22
2019-02-02T06:10:23.178Z,98.97
2019-02-02T06:16:26.201Z,97.85
2019-02-02T06:22:45.588Z,87.10
2019-02-02T06:25:42.383Z,93.80
2019-02-02T06:28:38.357Z,69.05
2019-02-02T06:31:33.412Z,69.53
2019-02-02T06:34:38.533Z,76.57
2019-02-02T06:37:28.645Z,80.32
2019-02-02T06:40:30.622Z,77.00
2019-02-02T06:43:30.161Z,62.75
2019-02-02T06:46:23.031Z,73.80
2019-02-02T06:49:18.092Z,69.82
2019-02-02T06:52:16.357Z,93.78
2019-02-02T06:55:13.298Z,59.90
2019-02-02T06:58:08.820Z,67.08
2019-02-02T07:01:14.455Z,81.55
2019-02-02T07:10:36.383Z,61.25
2019-02-02T07:13:43.921Z,84.58
2019-02-02T07:20:03.885Z,69.55
2019-02-02T07:23:04.169Z,69.62
2019-02-02T07:26:40.866Z,72.53
2019-02-02T07:32:44.859Z,66.90
2019-02-02T07:35:53.963Z,72.72
2019-02-02T07:38:50.418Z,70.47
2019-02-02T07:41:48.551Z,83.62
2019-02-02T07:45:00.381Z,82.78
2019-02-02T07:48:02.462Z,80.62
2019-02-02T07:51:03.218Z,68.02
2019-02-02T07:54:14.278Z,78.97
2019-02-02T07:57:32.590Z,66.33
2019-02-02T08:00:47.347Z,65.92
2019-02-02T08:03:52.434Z,60.58
2019-02-02T08:06:51.102Z,75.05
2019-02-02T08:09:46.261Z,63.10
2019-02-02T08:12:42.805Z,72.70
2019-02-02T08:15:55.458Z,64.77
2019-02-02T08:18:48.700Z,64.53
2019-02-02T08:21:51.520Z,72.72
2019-02-02T08:24:47.667Z,59.45
2019-02-02T08:27:42.315Z,60.12
2019-02-02T08:30:38.062Z,62.13
2019-02-02T08:33:33.122Z,58.25
2019-02-02T08:36:33.784Z,55.83
2019-02-02T08:39:45.187Z,62.75
2019-02-02T08:42:44.053Z,61.80
2019-02-02T08:45:40.440Z,79.25
2019-02-02T08:48:38.782Z,70.65
2019-02-02T08:52:08.472Z,67.32
2019-02-02T08:55:16.968Z,66.85
2019-02-02T08:58:25.915Z,64.40
2019-02-02T09:01:27.414Z,61.85
2019-02-02T09:04:44.546Z,57.43
2019-02-02T09:07:38.322Z,65.05
2019-02-02T09:10:36.415Z,56.88
2019-02-02T09:13:32.603Z,59.93
2019-02-02T09:16:34.014Z,56.02
2019-02-02T09:19:29.732Z,59.90
2019-02-02T09:22:37.155Z,60.08
2019-02-02T09:25:34.208Z,67.08
2019-02-02T09:28:29.027Z,61.15
2019-02-02T09:31:24.002Z,58.48
2019-02-02T09:34:19.274Z,74.03
2019-02-02T09:37:15.308Z,68.28
2019-02-02T09:40:12.114Z,67.70
2019-02-02T09:43:08.387Z,63.00
2019-02-02T09:46:04.801Z,72.10
2019-02-02T09:49:03.981Z,77.87
2019-02-02T09:52:18.793Z,74.87
2019-02-02T09:55:16.386Z,65.55
2019-02-02T09:58:13.656Z,78.37
2019-02-02T10:01:37.286Z,69.27
2019-02-02T10:04:34.444Z,69.90
2019-02-02T10:07:29.170Z,74.92
2019-02-02T10:10:26.445Z,68.47
2019-02-02T10:13:21.729Z,74.10
2019-02-02T10:16:17.842Z,78.57
2019-02-02T10:19:14.598Z,75.83
2019-02-02T10:25:35.865Z,63.90
2019-02-02T10:28:31.497Z,70.85
2019-02-02T10:31:38.926Z,72.58
2019-02-02T10:34:24.872Z,69.77
2019-02-02T10:37:21.026Z,73.42
2019-02-02T10:40:17.055Z,73.20
2019-02-02T10:43:14.770Z,79.30
2019-02-02T10:46:10.800Z,64.00
2019-02-02T10:49:06.042Z,126.22
2019-02-02T10:52:01.555Z,67.10
2019-02-02T10:55:03.000Z,79.32
2019-02-02T10:58:01.978Z,68.57
2019-02-02T11:01:09.875Z,72.70
2019-02-02T11:04:35.851Z,59.77
2019-02-02T11:07:27.760Z,62.98
2019-02-02T11:10:29.926Z,71.85
2019-02-02T11:13:25.274Z,65.20
2019-02-02T11:16:22.857Z,63.98
2019-02-02T11:19:32.349Z,59.27
2019-02-02T11:22:29.203Z,63.78
2019-02-02T11:25:40.256Z,68.55
2019-02-02T11:28:45.325Z,84.00
2019-02-02T11:31:43.674Z,75.47
2019-02-02T11:34:37.317Z,77.67
2019-02-02T11:37:37.362Z,72.85
2019-02-02T11:40:47.010Z,75.50
2019-02-02T11:43:45.369Z,85.28
2019-02-02T11:46:48.878Z,89.00
2019-02-02T11:49:42.842Z,108.42
2019-02-02T11:52:38.306Z,125.53
2019-02-02T11:55:34.915Z,118.57
2019-02-02T11:58:30.187Z,119.95
2019-02-02T12:01:25.088Z,117.75
2019-02-02T12:04:20.526Z,131.85
2019-02-02T12:07:15.613Z,113.50
2019-02-02T12:10:12.348Z,106.22
2019-02-02T12:13:10.008Z,94.42
2019-02-02T12:16:05.639Z,114.60
2019-02-02T12:19:05.133Z,118.00
2019-02-02T12:22:00.471Z,129.05
2019-02-02T12:24:55.761Z,150.00
2019-02-02T12:27:50.913Z,130.65
2019-02-02T12:30:46.155Z,123.78
2019-02-02T12:33:40.788Z,171.05
2019-02-02T12:36:36.898Z,177.20
2019-02-02T12:39:34.913Z,172.90
2019-02-02T12:42:29.522Z,163.35
2019-02-02T12:45:27.151Z,196.20
2019-02-02T12:48:23.027Z,201.75
2019-02-02T12:51:18.854Z,204.80
2019-02-02T12:54:37.196Z,214.23
2019-02-02T12:57:45.908Z,287.52
2019-02-02T13:00:45.602Z,236.37
2019-02-02T13:03:45.000Z,269.20
2019-02-02T13:06:39.908Z,225.40
2019-02-02T13:09:37.283Z,215.85
2019-02-02T13:12:33.593Z,213.85
2019-02-02T13:15:29.403Z,196.98
2019-02-02T13:18:24.120Z,218.27
2019-02-02T13:21:18.927Z,236.77
2019-02-02T13:24:17.119Z,217.35
2019-02-02T13:27:12.360Z,237.57
2019-02-02T13:30:08.235Z,192.32
2019-02-02T13:33:03.510Z,195.75
2019-02-02T13:36:00.340Z,217.10
2019-02-02T13:39:03.562Z,197.95
2019-02-02T13:42:00.674Z,213.28
2019-02-02T13:45:17.483Z,227.53
2019-02-02T13:48:13.006Z,289.68
2019-02-02T13:51:08.080Z,307.00
2019-02-02T13:54:02.811Z,269.43
2019-02-02T13:57:00.893Z,213.97
2019-02-02T13:59:56.645Z,198.00
2019-02-02T14:03:04.579Z,237.42
2019-02-02T14:06:02.612Z,284.18
2019-02-02T14:08:57.841Z,287.33
2019-02-02T14:11:53.086Z,181.35
2019-02-02T14:14:56.331Z,174.77
2019-02-02T14:17:51.978Z,192.15
2019-02-02T14:20:56.884Z,176.25
2019-02-02T14:28:34.976Z,290.12
2019-02-02T14:31:30.481Z,242.85
2019-02-02T14:34:25.566Z,205.77
2019-02-02T14:37:22.335Z,263.37
2019-02-02T14:40:18.883Z,212.15
2019-02-02T14:43:14.023Z,264.63
2019-02-02T14:46:16.917Z,266.17
2019-02-02T14:49:17.199Z,245.17
2019-02-02T14:52:12.613Z,236.25
2019-02-02T14:55:07.987Z,250.13
2019-02-02T14:58:02.958Z,243.10
2019-02-02T15:00:58.324Z,254.63
2019-02-02T15:03:54.057Z,220.73
2019-02-02T15:06:49.032Z,196.37
2019-02-02T15:09:44.755Z,221.70
2019-02-02T15:12:40.008Z,272.33
2019-02-02T15:15:37.792Z,172.25
2019-02-02T15:18:36.188Z,180.78
2019-02-02T15:21:31.274Z,208.28
2019-02-02T15:24:26.352Z,189.97
2019-02-02T15:27:21.325Z,190.18
2019-02-02T15:30:18.859Z,185.45
2019-02-02T15:33:14.204Z,201.22
2019-02-02T15:36:09.536Z,176.68
2019-02-02T15:39:05.413Z,183.37
2019-02-02T15:42:00.681Z,171.87
2019-02-02T15:44:56.760Z,165.12
2019-02-02T15:47:52.047Z,165.37
2019-02-02T15:50:47.615Z,197.47
2019-02-02T15:53:42.528Z,242.13
2019-02-02T15:59:40.925Z,253.18
2019-02-02T16:02:35.872Z,288.70
2019-02-02T16:05:31.748Z,284.40
2019-02-02T16:08:30.573Z,314.12
2019-02-02T16:11:29.237Z,267.80
2019-02-02T16:14:22.371Z,249.37
2019-02-02T16:17:17.594Z,241.35
2019-02-02T16:20:16.099Z,192.07
2019-02-02T16:23:10.933Z,174.47
2019-02-02T16:26:05.985Z,225.05
2019-02-02T16:29:00.915Z,242.65
2019-02-02T16:31:57.380Z,245.75
2019-02-02T16:34:52.410Z,235.63
2019-02-02T16:37:47.161Z,271.02
2019-02-02T16:40:42.006Z,284.57
2019-02-02T16:43:36.822Z,307.00
2019-02-02T16:46:32.778Z,306.85
2019-02-02T16:49:27.717Z,315.25
2019-02-02T16:52:22.384Z,270.60
2019-02-02T16:55:17.471Z,249.85
2019-02-02T16:58:12.165Z,240.45
2019-02-02T17:01:07.247Z,229.15
2019-02-02T17:04:08.509Z,236.87
2019-02-02T17:06:57.995Z,249.58
2019-02-02T17:09:55.833Z,265.73
2019-02-02T17:12:50.830Z,251.00
2019-02-02T17:15:45.605Z,265.90
2019-02-02T17:18:41.391Z,254.23
2019-02-02T17:21:40.161Z,246.87
2019-02-02T17:24:38.226Z,290.20
2019-02-02T17:27:33.817Z,330.48
2019-02-02T17:30:29.449Z,311.00
2019-02-02T17:33:26.609Z,318.35
2019-02-02T17:36:19.656Z,293.73
2019-02-02T17:39:14.363Z,294.65
2019-02-02T17:42:10.801Z,262.48
2019-02-02T17:45:06.092Z,293.23
2019-02-02T17:48:00.756Z,252.60
2019-02-02T17:50:55.715Z,265.15
2019-02-02T17:53:50.567Z,231.90
2019-02-02T17:56:45.475Z,245.88
2019-02-02T17:59:40.719Z,226.18
2019-02-02T18:02:35.422Z,250.22
2019-02-02T18:05:30.275Z,241.93
2019-02-02T18:08:24.962Z,234.43
2019-02-02T18:11:19.810Z,207.75
2019-02-02T18:14:14.870Z,228.62
2019-02-02T18:17:09.712Z,202.93
2019-02-02T18:20:04.627Z,175.75
2019-02-02T18:22:59.184Z,241.33
2019-02-02T18:25:54.058Z,235.23
2019-02-02T18:28:48.756Z,219.93
2019-02-02T18:31:43.432Z,217.50
2019-02-02T18:34:38.023Z,272.45
2019-02-02T18:37:32.714Z,244.10
2019-02-02T18:40:27.957Z,251.67
2019-02-02T18:43:22.714Z,253.90
2019-02-02T18:46:17.423Z,238.47
2019-02-02T18:49:12.221Z,277.07
2019-02-02T18:52:06.643Z,263.25
2019-02-02T18:55:01.450Z,304.48
2019-02-02T18:57:56.063Z,334.98
2019-02-02T19:00:51.049Z,327.13
2019-02-02T19:03:45.690Z,314.93
2019-02-02T19:06:40.543Z,323.62
2019-02-02T19:09:35.114Z,307.07
2019-02-02T19:12:29.741Z,304.32
2019-02-02T19:15:24.590Z,307.27
2019-02-02T19:18:19.594Z,303.77
2019-02-02T19:21:14.143Z,298.43
2019-02-02T19:24:09.362Z,298.02
2019-02-02T19:27:04.202Z,294.32
2019-02-02T19:29:59.184Z,308.90
2019-02-02T19:32:54.174Z,360.38
2019-02-02T19:35:49.004Z,341.57
2019-02-02T19:38:43.799Z,333.65
2019-02-02T19:41:38.355Z,320.25
2019-02-02T19:47:47.819Z,331.95
2019-02-02T19:50:47.923Z,363.18
2019-02-02T19:53:43.078Z,388.40
2019-02-02T19:56:38.267Z,386.12
2019-02-02T19:59:33.261Z,374.50
2019-02-02T20:02:28.156Z,404.00
2019-02-02T20:05:28.762Z,390.05
2019-02-02T20:08:18.574Z,404.85
2019-02-02T20:11:13.285Z,452.70
2019-02-02T20:14:07.679Z,436.20
2019-02-02T20:17:02.354Z,461.95
2019-02-02T20:19:56.820Z,465.68
2019-02-02T20:22:51.551Z,485.87
2019-02-02T20:25:46.548Z,489.50
2019-02-02T20:28:41.159Z,485.85
2019-02-02T20:31:35.815Z,453.10
2019-02-02T20:34:30.562Z,448.73
2019-02-02T20:37:25.200Z,495.50
2019-02-02T20:40:24.793Z,456.32
2019-02-02T20:43:19.292Z,436.43
2019-02-02T20:46:14.216Z,458.32
2019-02-02T20:49:08.903Z,425.98
2019-02-02T20:52:03.617Z,470.18
2019-02-02T20:55:01.054Z,482.65
2019-02-02T20:58:06.721Z,471.42
2019-02-02T21:01:01.578Z,465.45
2019-02-02T21:03:56.650Z,439.50
2019-02-02T21:06:51.451Z,428.35
2019-02-02T21:09:46.288Z,401.37
2019-02-02T21:12:40.964Z,450.70
2019-02-02T21:15:35.827Z,418.63
2019-02-02T21:18:30.835Z,422.52
2019-02-02T21:21:34.123Z,467.63
2019-02-02T21:24:28.712Z,464.02
2019-02-02T21:27:23.992Z,442.27
2019-02-02T21:30:24.304Z,433.92
2019-02-02T21:33:20.742Z,438.75
2019-02-02T21:36:15.451Z,463.77
2019-02-02T21:39:12.631Z,457.17
2019-02-02T21:42:10.813Z,446.50
2019-02-02T21:45:05.399Z,453.52
2019-02-02T21:48:00.440Z,431.82
2019-02-02T21:50:56.113Z,447.23
2019-02-02T21:56:51.400Z,417.68
2019-02-02T21:59:46.603Z,433.75
2019-02-02T22:02:41.698Z,454.00
2019-02-02T22:05:36.426Z,432.70
2019-02-02T22:08:31.375Z,448.40
2019-02-02T22:11:26.034Z,423.95
2019-02-02T22:14:20.972Z,440.17
2019-02-02T22:17:15.742Z,455.95
2019-02-02T22:20:12.266Z,430.40
2019-02-02T22:23:07.246Z,446.27
2019-02-02T22:26:02.173Z,429.57
2019-02-02T22:28:57.950Z,457.43
2019-02-02T22:31:53.075Z,447.63
2019-02-02T22:34:47.976Z,422.80
2019-02-02T22:37:42.888Z,427.65
2019-02-02T22:40:38.068Z,426.13
2019-02-02T22:43:42.243Z,427.67
2019-02-02T22:46:46.377Z,441.82
2019-02-02T22:52:50.495Z,369.40
2019-02-02T22:55:54.279Z,385.48
2019-02-02T22:58:57.547Z,396.60
2019-02-02T23:01:59.937Z,391.68
2019-02-02T23:05:36.468Z,386.48
2019-02-02T23:08:56.989Z,407.62
2019-02-02T23:12:14.907Z,394.82
2019-02-02T23:15:37.931Z,435.90
2019-02-02T23:18:32.663Z,410.23
2019-02-02T23:21:28.153Z,448.97
2019-02-02T23:24:23.295Z,452.23
2019-02-02T23:27:18.211Z,489.50
2019-02-02T23:30:14.137Z,480.43
2019-02-02T23:33:08.943Z,512.88
2019-02-02T23:36:03.576Z,540.00
2019-02-02T23:38:58.531Z,480.80
2019-02-02T23:41:53.287Z,498.58
2019-02-02T23:48:08.365Z,526.85
2019-02-02T23:51:04.414Z,503.40
2019-02-02T23:54:07.572Z,522.05
2019-02-02T23:57:09.344Z,516.92
